createdAt,value
2019-03-12T07:02:10.198Z,89.70
2019-03-12T07:04:40.102Z,77.63
2019-03-12T07:07:22.263Z,82.07
2019-03-12T07:09:58.010Z,76.67
2019-03-12T07:12:36.795Z,81.00
2019-03-12T07:15:07.978Z,86.10
2019-03-12T07:17:50.434Z,78.90
2019-03-12T07:20:37.172Z,78.67
2019-03-12T07:23:16.204Z,76.73
2019-03-12T07:26:02.379Z,84.20
2019-03-12T07:28:50.008Z,80.93
2019-03-12T07:31:16.245Z,81.47
2019-03-12T07:33:52.211Z,82.37
2019-03-12T07:36:37.492Z,83.57
2019-03-12T07:39:14.849Z,79.50
2019-03-12T07:41:56.999Z,82.87
2019-03-12T07:44:27.260Z,85.23
2019-03-12T07:47:00.480Z,85.87
2019-03-12T07:49:36.721Z,79.70
2019-03-12T07:52:09.398Z,81.43
2019-03-12T07:54:48.987Z,82.63
2019-03-12T07:57:19.134Z,81.87
2019-03-12T07:59:55.443Z,84.93
2019-03-12T08:02:42.167Z,85.10
2019-03-12T08:05:30.542Z,85.27
2019-03-12T08:08:03.708Z,71.30
2019-03-12T08:10:36.487Z,76.37
2019-03-12T08:13:18.705Z,87.33
2019-03-12T08:16:06.075Z,84.20
2019-03-12T08:18:39.055Z,86.13
2019-03-12T08:21:22.221Z,83.80
2019-03-12T08:24:03.124Z,85.27
2019-03-12T08:26:42.249Z,83.20
2019-03-12T08:29:29.133Z,80.43
2019-03-12T08:32:02.482Z,70.20
2019-03-12T08:34:32.714Z,74.20
2019-03-12T08:37:02.934Z,86.43
2019-03-12T08:39:36.613Z,81.53
2019-03-12T08:42:15.658Z,87.37
2019-03-12T08:44:54.793Z,83.73
2019-03-12T08:47:28.041Z,82.67
2019-03-12T08:50:00.870Z,82.67
2019-03-12T08:52:33.680Z,81.57
2019-03-12T08:55:04.421Z,85.47
2019-03-12T08:57:46.635Z,82.67
2019-03-12T09:00:19.555Z,82.97
2019-03-12T09:02:52.394Z,83.43
2019-03-12T09:05:39.125Z,82.83
2019-03-12T09:08:25.883Z,85.97
2019-03-12T09:11:08.445Z,89.17
2019-03-12T09:13:52.471Z,87.87
2019-03-12T09:16:28.730Z,88.67
2019-03-12T09:19:01.625Z,88.17
2019-03-12T09:21:43.838Z,88.33
2019-03-12T09:24:16.708Z,85.70
2019-03-12T09:26:47.577Z,85.47
2019-03-12T09:29:17.524Z,83.30
2019-03-12T09:31:59.727Z,86.07
2019-03-12T09:34:32.673Z,82.80
2019-03-12T09:37:08.831Z,82.77
2019-03-12T09:39:51.009Z,81.50
2019-03-12T09:42:37.625Z,81.60
2019-03-12T09:45:19.193Z,82.70
2019-03-12T09:47:55.030Z,82.27
2019-03-12T09:50:24.989Z,82.20
2019-03-12T09:53:11.703Z,84.17
2019-03-12T09:55:44.432Z,82.40
2019-03-12T09:58:22.833Z,81.73
2019-03-12T10:01:10.753Z,79.97
2019-03-12T10:03:46.394Z,81.40
2019-03-12T10:06:32.703Z,82.33
2019-03-12T10:09:14.350Z,82.03
2019-03-12T10:12:00.706Z,83.50
2019-03-12T10:14:33.357Z,81.27
2019-03-12T10:17:03.266Z,78.50
2019-03-12T10:19:35.690Z,78.77
2019-03-12T10:22:20.707Z,82.20
2019-03-12T10:24:50.670Z,81.73
2019-03-12T10:27:20.565Z,84.03
2019-03-12T10:29:50.409Z,82.80
2019-03-12T10:32:20.345Z,84.67
2019-03-12T10:34:50.274Z,87.50
2019-03-12T10:37:32.599Z,82.93
2019-03-12T10:40:03.428Z,82.43
2019-03-12T10:42:37.871Z,85.57
2019-03-12T10:45:18.247Z,79.83
2019-03-12T10:47:57.527Z,83.33
2019-03-12T10:50:26.238Z,83.13
2019-03-12T10:52:54.707Z,82.60
2019-03-12T10:55:23.026Z,83.60
2019-03-12T10:57:51.591Z,82.30
2019-03-12T11:00:20.158Z,79.87
2019-03-12T11:02:48.451Z,85.50
2019-03-12T11:05:17.311Z,84.77
2019-03-12T11:07:45.636Z,80.93
2019-03-12T11:10:15.503Z,85.47
2019-03-12T11:12:44.005Z,85.23
2019-03-12T11:15:12.545Z,90.27
2019-03-12T11:17:49.457Z,88.47
2019-03-12T11:20:22.571Z,83.33
2019-03-12T11:22:50.866Z,87.97
2019-03-12T11:25:27.060Z,89.37
2019-03-12T11:27:49.725Z,88.77
2019-03-12T11:30:19.251Z,86.50
2019-03-12T11:32:47.508Z,88.17
2019-03-12T11:35:39.437Z,86.47
2019-03-12T11:38:05.833Z,92.10
2019-03-12T11:40:34.490Z,86.23
2019-03-12T11:43:02.788Z,85.87
2019-03-12T11:45:36.878Z,89.30
2019-03-12T11:48:01.283Z,90.20
2019-03-12T11:50:29.996Z,88.67
2019-03-12T11:53:00.050Z,88.23
2019-03-12T11:55:28.523Z,87.20
2019-03-12T11:57:57.249Z,84.43
2019-03-12T12:00:33.160Z,87.27
2019-03-12T12:03:01.520Z,85.07
2019-03-12T12:05:29.850Z,84.70
2019-03-12T12:07:58.475Z,88.90
2019-03-12T12:10:26.731Z,87.90
2019-03-12T12:12:55.416Z,87.57
2019-03-12T12:15:24.591Z,86.20
2019-03-12T12:17:55.753Z,85.27
2019-03-12T12:20:29.518Z,83.70
2019-03-12T12:22:54.674Z,85.10
2019-03-12T12:25:22.990Z,84.90
2019-03-12T12:27:51.488Z,87.33
2019-03-12T12:30:21.467Z,85.00
2019-03-12T12:32:50.039Z,88.07
2019-03-12T12:35:18.602Z,85.43
2019-03-12T12:37:47.169Z,85.87
2019-03-12T12:40:20.808Z,84.10
2019-03-12T12:42:49.464Z,85.33
2019-03-12T12:45:26.939Z,87.63
2019-03-12T12:47:55.555Z,89.07
2019-03-12T12:50:24.214Z,84.80
2019-03-12T12:52:52.890Z,85.70
2019-03-12T12:55:21.391Z,85.07
2019-03-12T12:57:50.039Z,84.23
2019-03-12T13:00:23.838Z,81.90
2019-03-12T13:02:52.484Z,86.43
2019-03-12T13:05:20.949Z,87.93
2019-03-12T13:07:49.480Z,85.33
2019-03-12T13:10:31.769Z,84.87
2019-03-12T13:13:00.417Z,85.50
2019-03-12T13:15:29.039Z,86.57
2019-03-12T13:17:57.538Z,85.77
2019-03-12T13:20:26.423Z,86.83
2019-03-12T13:22:55.055Z,87.90
2019-03-12T13:25:23.632Z,88.03
2019-03-12T13:27:52.205Z,88.97
2019-03-12T13:30:21.613Z,84.23
2019-03-12T13:32:49.944Z,87.47
2019-03-12T13:35:18.535Z,84.77
2019-03-12T13:37:47.503Z,87.20
2019-03-12T13:40:21.357Z,88.70
2019-03-12T13:42:49.764Z,89.50
2019-03-12T13:45:19.647Z,82.63
2019-03-12T13:47:48.216Z,83.97
2019-03-12T13:50:16.761Z,87.07
2019-03-12T13:52:45.443Z,86.43
2019-03-12T13:55:15.177Z,85.07
2019-03-12T13:57:43.872Z,91.13
2019-03-12T14:00:23.769Z,90.60
2019-03-12T14:02:52.095Z,89.80
2019-03-12T14:05:20.732Z,87.03
2019-03-12T14:07:49.737Z,85.03
2019-03-12T14:10:19.709Z,85.43
2019-03-12T14:12:47.899Z,85.23
2019-03-12T14:15:30.343Z,85.30
2019-03-12T14:17:59.361Z,84.50
2019-03-12T14:20:50.892Z,87.47
2019-03-12T14:23:28.342Z,86.60
2019-03-12T14:25:56.639Z,85.07
2019-03-12T14:28:25.569Z,86.40
2019-03-12T14:30:53.761Z,85.37
2019-03-12T14:33:22.368Z,87.20
2019-03-12T14:35:52.298Z,90.57
2019-03-12T14:38:20.878Z,85.67
2019-03-12T14:40:49.254Z,85.43
2019-03-12T14:43:17.893Z,92.40
2019-03-12T14:45:50.685Z,90.33
2019-03-12T14:48:37.145Z,97.70
2019-03-12T14:51:09.314Z,94.07
2019-03-12T14:53:37.875Z,89.53
2019-03-12T14:56:06.959Z,91.97
2019-03-12T14:58:35.239Z,88.67
2019-03-12T15:01:03.913Z,92.70
2019-03-12T15:03:32.919Z,106.73
2019-03-12T15:06:01.580Z,101.70
2019-03-12T15:08:30.232Z,106.00
2019-03-12T15:10:59.050Z,104.70
2019-03-12T15:13:27.382Z,103.10
2019-03-12T15:15:55.751Z,99.53
2019-03-12T15:18:25.147Z,99.77
2019-03-12T15:20:53.926Z,105.13
2019-03-12T15:23:45.715Z,111.70
2019-03-12T15:26:14.942Z,104.03
2019-03-12T15:28:43.610Z,101.77
2019-03-12T15:31:13.109Z,103.60
2019-03-12T15:33:41.732Z,100.77
2019-03-12T15:36:10.067Z,82.07
2019-03-12T15:38:39.131Z,86.23
2019-03-12T15:41:07.789Z,81.70
2019-03-12T15:43:37.593Z,84.53
2019-03-12T15:46:06.200Z,83.47
2019-03-12T15:48:34.767Z,82.30
2019-03-12T15:51:03.268Z,83.10
2019-03-12T15:53:31.866Z,82.10
2019-03-12T15:56:00.519Z,83.70
2019-03-12T15:58:28.771Z,84.57
2019-03-12T16:00:57.439Z,80.83
2019-03-12T16:03:25.756Z,83.43
2019-03-12T16:05:54.404Z,85.13
2019-03-12T16:08:23.025Z,85.80
2019-03-12T16:10:57.845Z,83.10
2019-03-12T16:13:21.566Z,86.37
2019-03-12T16:15:49.861Z,83.23
2019-03-12T16:18:18.509Z,81.70
2019-03-12T16:20:47.073Z,83.70
2019-03-12T16:23:15.679Z,82.47
2019-03-12T16:25:45.679Z,82.80
2019-03-12T16:28:14.321Z,88.13
2019-03-12T16:30:42.986Z,84.73
2019-03-12T16:33:11.631Z,85.77
2019-03-12T16:35:39.891Z,86.87
2019-03-12T16:38:08.433Z,85.60
2019-03-12T16:40:36.757Z,87.70
2019-03-12T16:43:05.026Z,89.57
2019-03-12T16:45:33.568Z,87.50
2019-03-12T16:48:02.141Z,87.43
2019-03-12T16:50:32.357Z,88.20
2019-03-12T16:53:00.642Z,86.60
2019-03-12T16:55:29.303Z,89.77
2019-03-12T16:57:57.938Z,87.03
2019-03-12T17:00:26.610Z,86.90
2019-03-12T17:02:55.246Z,91.00
2019-03-12T17:05:28.099Z,88.60
2019-03-12T17:07:56.387Z,89.70
2019-03-12T17:10:24.955Z,89.57
2019-03-12T17:12:53.604Z,89.00
2019-03-12T17:15:27.012Z,88.40
2019-03-12T17:17:55.512Z,89.70
2019-03-12T17:20:24.099Z,89.13
2019-03-12T17:22:52.685Z,90.90
2019-03-12T17:25:22.213Z,90.60
2019-03-12T17:27:51.872Z,91.87
2019-03-12T17:30:24.589Z,90.17
2019-03-12T17:32:53.174Z,91.13
2019-03-12T17:35:27.544Z,87.37
2019-03-12T17:37:56.081Z,85.83
2019-03-12T17:40:24.727Z,88.33
2019-03-12T17:42:53.371Z,85.53
2019-03-12T17:45:21.973Z,89.10
2019-03-12T17:47:50.921Z,84.17
2019-03-12T17:50:19.248Z,83.23
2019-03-12T17:52:47.937Z,85.43
2019-03-12T17:55:16.582Z,85.37
2019-03-12T17:57:45.605Z,87.27
2019-03-12T18:00:19.948Z,87.17
2019-03-12T18:02:50.653Z,87.90
2019-03-12T18:05:18.902Z,89.43
2019-03-12T18:07:47.271Z,90.03
2019-03-12T18:10:16.105Z,86.97
2019-03-12T18:12:44.426Z,88.83
2019-03-12T18:15:15.100Z,89.63
2019-03-12T18:17:43.739Z,88.70
2019-03-12T18:20:19.897Z,89.07
2019-03-12T18:22:48.541Z,87.87
2019-03-12T18:25:18.178Z,87.47
2019-03-12T18:27:46.635Z,86.87
2019-03-12T18:30:19.171Z,88.27
2019-03-12T18:32:47.471Z,86.40
2019-03-12T18:35:16.235Z,89.83
2019-03-12T18:37:46.387Z,89.57
2019-03-12T18:40:17.687Z,91.00
2019-03-12T18:42:46.405Z,87.83
2019-03-12T18:45:17.450Z,84.93
2019-03-12T18:47:45.812Z,87.70
2019-03-12T18:50:17.790Z,87.70
2019-03-12T18:52:46.413Z,85.50
2019-03-12T18:55:33.807Z,86.07
2019-03-12T18:58:04.562Z,93.40
2019-03-12T19:00:32.982Z,88.40
2019-03-12T19:03:02.017Z,84.87
2019-03-12T19:05:30.351Z,86.00
2019-03-12T19:07:58.676Z,90.07
2019-03-12T19:10:27.369Z,86.37
2019-03-12T19:12:55.712Z,103.93
2019-03-12T19:15:24.045Z,86.27
2019-03-12T19:17:53.155Z,89.67
2019-03-12T19:20:33.465Z,83.37
2019-03-12T19:23:02.159Z,83.77
2019-03-12T19:25:38.304Z,82.67
2019-03-12T19:28:06.066Z,87.30
2019-03-12T19:30:35.063Z,83.30
2019-03-12T19:33:05.579Z,86.67
2019-03-12T19:35:36.781Z,82.17
2019-03-12T19:38:05.484Z,96.00
2019-03-12T19:40:43.047Z,87.37
2019-03-12T19:43:11.395Z,86.33
2019-03-12T19:45:39.667Z,83.77
2019-03-12T19:48:08.379Z,84.47
2019-03-12T19:50:36.881Z,82.97
2019-03-12T19:53:05.156Z,83.50
2019-03-12T19:55:48.889Z,85.00
2019-03-12T19:58:17.463Z,86.70
2019-03-12T20:00:46.099Z,85.10
2019-03-12T20:03:16.404Z,81.30
2019-03-12T20:05:45.058Z,82.33
2019-03-12T20:08:13.419Z,86.97
2019-03-12T20:11:09.127Z,85.63
2019-03-12T20:14:04.862Z,81.33
2019-03-12T20:17:08.167Z,83.83
2019-03-12T20:19:48.005Z,94.47
2019-03-12T20:22:39.181Z,83.57
2019-03-12T20:25:25.852Z,83.87
2019-03-12T20:28:01.747Z,84.67
2019-03-12T20:30:52.963Z,86.33
2019-03-12T20:33:22.898Z,86.17
2019-03-12T20:36:09.185Z,83.57
2019-03-12T20:38:57.351Z,86.50
2019-03-12T20:41:44.322Z,84.47
2019-03-12T20:44:39.074Z,90.70
2019-03-12T20:47:25.505Z,86.20
2019-03-12T20:50:13.794Z,90.93
2019-03-12T20:53:00.219Z,83.63
2019-03-12T20:55:47.237Z,87.30
2019-03-12T20:58:33.865Z,84.13
2019-03-12T21:01:40.767Z,84.10
2019-03-12T21:04:18.018Z,86.70
2019-03-12T21:07:10.009Z,87.10
2019-03-12T21:09:59.614Z,85.43
2019-03-12T21:12:46.280Z,87.27
2019-03-12T21:15:34.492Z,91.07
2019-03-12T21:18:18.502Z,85.00
2019-03-12T21:20:57.386Z,86.50
2019-03-12T21:23:47.394Z,84.97
2019-03-12T21:26:47.928Z,83.83
2019-03-12T21:29:45.528Z,85.13
2019-03-12T21:32:15.282Z,82.13
2019-03-12T21:34:44.574Z,85.27
2019-03-12T21:37:13.280Z,83.67
2019-03-12T21:39:54.004Z,85.07
2019-03-12T21:42:11.867Z,87.90
2019-03-12T21:44:41.337Z,88.67
2019-03-12T21:47:10.004Z,85.97
2019-03-12T21:49:39.168Z,84.57
2019-03-12T21:52:07.836Z,84.93
2019-03-12T21:54:36.482Z,86.43
2019-03-12T21:57:05.120Z,84.47
2019-03-12T21:59:33.499Z,85.53
2019-03-12T22:02:02.138Z,84.33
2019-03-12T22:04:30.730Z,85.30
2019-03-12T22:06:59.353Z,84.30
2019-03-12T22:09:28.265Z,85.50
2019-03-12T22:11:56.918Z,81.50
2019-03-12T22:14:25.603Z,82.53
2019-03-12T22:16:54.746Z,86.13
2019-03-12T22:19:23.002Z,82.33
2019-03-12T22:22:11.471Z,82.33
2019-03-12T22:24:39.812Z,83.50
2019-03-12T22:27:08.462Z,87.40
2019-03-12T22:29:37.003Z,86.90
2019-03-12T22:32:05.649Z,89.03
2019-03-12T22:34:38.182Z,86.50
2019-03-12T22:37:06.890Z,84.37
2019-03-12T22:39:40.250Z,86.30
2019-03-12T22:42:10.596Z,84.03
2019-03-12T22:44:39.231Z,82.17
2019-03-12T22:47:07.891Z,85.77
2019-03-12T22:49:36.500Z,82.00
2019-03-12T22:52:05.748Z,83.93
2019-03-12T22:54:34.400Z,81.77
2019-03-12T22:57:02.690Z,85.30
2019-03-12T22:59:31.201Z,86.60
2019-03-12T23:01:59.765Z,83.00
2019-03-12T23:08:27.455Z,80.20
2019-03-12T23:10:58.650Z,81.10
2019-03-12T23:13:27.201Z,80.73
2019-03-12T23:15:56.212Z,79.67
2019-03-12T23:18:24.884Z,83.23
2019-03-12T23:20:55.085Z,82.67
2019-03-12T23:23:23.714Z,81.43
2019-03-12T23:25:52.377Z,84.07
2019-03-12T23:28:20.700Z,80.50
2019-03-12T23:30:49.390Z,81.80
2019-03-12T23:33:18.132Z,80.87
2019-03-12T23:35:46.711Z,81.67
2019-03-12T23:38:15.391Z,81.70
2019-03-12T23:40:44.051Z,81.53
2019-03-12T23:43:12.678Z,82.93
2019-03-12T23:45:41.303Z,84.30
2019-03-12T23:48:09.893Z,83.07
2019-03-12T23:50:38.517Z,82.17
2019-03-12T23:53:06.889Z,77.93
2019-03-12T23:55:35.625Z,82.43
2019-03-12T23:58:04.244Z,80.40
